createdAt,value
2022-10-23T00:01:40.402Z,97110.34
2022-10-23T00:04:17.268Z,97114.53
2022-10-23T00:06:43.804Z,97120.84
2022-10-23T00:09:12.518Z,97131.94
2022-10-23T00:11:39.097Z,97132.66
2022-10-23T00:14:07.319Z,97129.69
2022-10-23T00:16:33.998Z,97134.09
2022-10-23T00:19:00.317Z,97137.72
2022-10-23T00:21:27.116Z,97131.31
2022-10-23T00:23:53.490Z,97132.97
2022-10-23T00:26:19.886Z,97139.81
2022-10-23T00:28:50.373Z,97140.81
2022-10-23T00:31:17.301Z,97137.56
2022-10-23T00:33:43.715Z,97141.13
2022-10-23T00:36:11.554Z,97140.59
2022-10-23T00:38:38.222Z,97144.09
2022-10-23T00:41:05.466Z,97149.44
2022-10-23T00:43:31.964Z,97138.13
2022-10-23T00:45:58.684Z,97147.31
2022-10-23T00:48:25.897Z,97138.69
2022-10-23T00:50:52.400Z,97136.53
2022-10-23T00:53:19.639Z,97141.13
2022-10-23T00:55:47.279Z,97145.03
2022-10-23T00:58:14.683Z,97141.66
2022-10-23T01:00:44.008Z,97138.28
2022-10-23T01:03:10.380Z,97135.59
2022-10-23T01:09:17.543Z,97143.00
2022-10-23T01:11:43.952Z,97142.16
2022-10-23T01:14:13.319Z,97147.44
2022-10-23T01:16:48.235Z,97146.41
2022-10-23T01:19:25.257Z,97139.38
2022-10-23T01:22:11.857Z,97128.28
2022-10-23T01:24:51.047Z,97131.09
2022-10-23T01:27:17.519Z,97124.34
2022-10-23T01:29:46.803Z,97122.56
2022-10-23T01:32:15.810Z,97124.38
2022-10-23T01:34:51.776Z,97110.59
2022-10-23T01:37:29.759Z,97107.19
2022-10-23T01:40:00.754Z,97108.81
2022-10-23T01:42:33.957Z,97109.28
2022-10-23T01:45:06.823Z,97105.19
2022-10-23T01:47:35.106Z,97100.13
2022-10-23T01:50:02.512Z,97103.88
2022-10-23T01:52:28.957Z,97094.88
2022-10-23T01:54:58.044Z,97094.06
2022-10-23T01:57:26.145Z,97085.84
2022-10-23T02:00:05.727Z,97079.31
2022-10-23T02:02:33.897Z,97079.16
2022-10-23T02:05:00.346Z,97079.97
2022-10-23T02:07:26.970Z,97083.41
2022-10-23T02:09:53.478Z,97083.91
2022-10-23T02:12:28.718Z,97086.22
2022-10-23T02:14:58.733Z,97081.94
2022-10-23T02:17:45.429Z,97080.78
2022-10-23T02:20:20.957Z,97079.97
2022-10-23T02:22:56.764Z,97069.16
2022-10-23T02:25:27.875Z,97071.41
2022-10-23T02:27:56.856Z,97068.94
2022-10-23T02:30:23.174Z,97067.47
2022-10-23T02:32:51.543Z,97065.84
2022-10-23T02:35:19.469Z,97054.34
2022-10-23T02:37:55.399Z,97062.53
2022-10-23T02:40:23.900Z,97060.06
2022-10-23T02:42:57.580Z,97053.81
2022-10-23T02:45:27.062Z,97053.63
2022-10-23T02:47:53.538Z,97045.91
2022-10-23T02:50:23.096Z,97050.63
2022-10-23T02:52:58.309Z,97045.34
2022-10-23T02:55:33.791Z,97041.72
2022-10-23T02:58:11.571Z,97041.66
2022-10-23T03:00:39.710Z,97046.38
2022-10-23T03:03:08.857Z,97045.03
2022-10-23T03:05:38.067Z,97048.28
2022-10-23T03:08:05.999Z,97042.22
2022-10-23T03:10:32.327Z,97040.53
2022-10-23T03:12:58.650Z,97029.09
2022-10-23T03:15:25.072Z,97035.13
2022-10-23T03:17:51.501Z,97041.06
2022-10-23T03:20:17.980Z,97039.22
2022-10-23T03:22:44.825Z,97043.31
2022-10-23T03:25:11.514Z,97049.88
2022-10-23T03:27:37.824Z,97062.53
2022-10-23T03:30:04.704Z,97067.56
2022-10-23T03:32:31.160Z,97068.44
2022-10-23T03:34:57.556Z,97068.94
2022-10-23T03:37:24.111Z,97060.53
2022-10-23T03:39:50.900Z,97058.34
2022-10-23T03:42:17.689Z,97056.09
2022-10-23T03:44:44.135Z,97050.97
2022-10-23T03:47:11.908Z,97050.44
2022-10-23T03:49:39.025Z,97053.31
2022-10-23T03:52:05.578Z,97048.03
2022-10-23T03:54:32.293Z,97050.09
2022-10-23T03:56:58.750Z,97052.81
2022-10-23T03:59:25.585Z,97058.34
2022-10-23T04:01:52.096Z,97055.09
2022-10-23T04:04:18.699Z,97055.41
2022-10-23T04:06:45.142Z,97060.03
2022-10-23T04:11:39.090Z,97055.22
2022-10-23T04:14:05.443Z,97048.47
2022-10-23T04:16:31.802Z,97052.31
2022-10-23T04:18:58.144Z,97054.69
2022-10-23T04:21:24.578Z,97047.50
2022-10-23T04:23:51.007Z,97036.34
2022-10-23T04:26:17.334Z,97036.28
2022-10-23T04:28:43.742Z,97031.69
2022-10-23T04:31:10.170Z,97034.16
2022-10-23T04:33:36.937Z,97029.69
2022-10-23T04:36:03.439Z,97034.41
2022-10-23T04:38:29.822Z,97040.28
2022-10-23T04:40:58.223Z,97040.81
2022-10-23T04:43:24.625Z,97046.72
2022-10-23T04:45:50.973Z,97040.38
2022-10-23T04:48:17.400Z,97043.69
2022-10-23T04:50:43.726Z,97040.41
2022-10-23T04:53:10.032Z,97040.13
2022-10-23T04:55:36.482Z,97034.50
2022-10-23T04:58:02.802Z,97033.28
2022-10-23T05:00:29.294Z,97029.22
2022-10-23T05:02:55.987Z,97030.53
2022-10-23T05:05:22.326Z,97025.25
2022-10-23T05:07:48.752Z,97024.91
2022-10-23T05:10:15.097Z,97031.69
2022-10-23T05:12:41.431Z,97032.53
2022-10-23T05:15:07.902Z,97024.75
2022-10-23T05:17:35.403Z,97033.28
2022-10-23T05:20:03.739Z,97024.91
2022-10-23T05:22:32.713Z,97025.94
2022-10-23T05:25:01.880Z,97024.47
2022-10-23T05:27:28.213Z,97029.91
2022-10-23T05:29:54.584Z,97026.25
2022-10-23T05:34:53.236Z,97041.75
2022-10-23T05:37:19.670Z,97031.34
2022-10-23T05:39:46.117Z,97029.91
2022-10-23T05:42:12.523Z,97036.16
2022-10-23T05:44:38.965Z,97030.78
2022-10-23T05:47:05.274Z,97037.06
2022-10-23T05:49:31.651Z,97034.81
2022-10-23T05:51:57.969Z,97038.63
2022-10-23T05:54:24.329Z,97040.84
2022-10-23T05:56:51.805Z,97044.06
2022-10-23T05:59:20.512Z,97044.09
2022-10-23T06:01:49.429Z,97044.72
2022-10-23T06:04:15.815Z,97043.06
2022-10-23T06:06:42.121Z,97046.84
2022-10-23T06:09:09.501Z,97050.06
2022-10-23T06:11:35.873Z,97053.66
2022-10-23T06:14:02.266Z,97050.47
2022-10-23T06:16:28.669Z,97057.22
2022-10-23T06:18:55.216Z,97037.13
2022-10-23T06:21:21.781Z,97037.91
2022-10-23T06:23:48.326Z,97031.81
2022-10-23T06:26:15.552Z,97039.44
2022-10-23T06:28:41.934Z,97047.38
2022-10-23T06:31:09.447Z,97048.22
2022-10-23T06:33:35.819Z,97037.28
2022-10-23T06:36:03.604Z,97037.78
2022-10-23T06:38:30.083Z,97026.13
2022-10-23T06:40:56.646Z,97025.31
2022-10-23T06:43:23.081Z,97029.16
2022-10-23T06:45:49.532Z,97033.66
2022-10-23T06:48:15.946Z,97041.00
2022-10-23T06:50:42.362Z,97047.88
2022-10-23T06:53:09.736Z,97054.59
2022-10-23T06:58:04.592Z,97046.47
2022-10-23T07:00:31.092Z,97047.44
2022-10-23T07:02:57.753Z,97045.34
2022-10-23T07:05:24.092Z,97041.56
2022-10-23T07:07:51.650Z,97038.75
2022-10-23T07:10:18.107Z,97053.25
2022-10-23T07:12:45.318Z,97058.81
2022-10-23T07:15:11.990Z,97062.53
2022-10-23T07:17:38.516Z,97053.94
2022-10-23T07:20:05.061Z,97049.59
2022-10-23T07:22:31.552Z,97041.41
2022-10-23T07:24:58.086Z,97045.44
2022-10-23T07:27:24.527Z,97042.31
2022-10-23T07:29:51.460Z,97047.13
2022-10-23T07:32:17.900Z,97050.94
2022-10-23T07:34:44.406Z,97043.91
2022-10-23T07:37:10.788Z,97051.13
2022-10-23T07:39:37.315Z,97048.56
2022-10-23T07:42:03.949Z,97051.94
2022-10-23T07:44:30.376Z,97049.84
2022-10-23T07:46:57.008Z,97052.03
2022-10-23T07:49:23.442Z,97051.03
2022-10-23T07:51:51.457Z,97050.84
2022-10-23T07:54:18.149Z,97055.97
2022-10-23T07:56:44.826Z,97056.75
2022-10-23T07:59:14.072Z,97042.91
2022-10-23T08:01:42.535Z,97041.41
2022-10-23T08:04:09.337Z,97033.50
2022-10-23T08:06:36.039Z,97029.69
2022-10-23T08:09:05.487Z,97025.44
2022-10-23T08:11:35.503Z,97016.53
2022-10-23T08:14:08.165Z,97008.25
2022-10-23T08:16:35.812Z,97013.88
2022-10-23T08:19:02.440Z,97021.25
2022-10-23T08:21:29.461Z,97019.81
2022-10-23T08:23:56.723Z,97015.09
2022-10-23T08:26:24.603Z,97016.47
2022-10-23T08:28:51.567Z,97014.88
2022-10-23T08:31:18.837Z,97003.44
2022-10-23T08:33:45.413Z,97005.00
2022-10-23T08:36:17.789Z,96991.03
2022-10-23T08:38:44.219Z,96997.16
2022-10-23T08:41:32.344Z,96987.97
2022-10-23T08:44:12.722Z,96991.00
2022-10-23T08:46:41.958Z,96986.84
2022-10-23T08:49:17.697Z,96995.88
2022-10-23T08:51:49.193Z,96990.34
2022-10-23T08:54:20.938Z,96995.03
2022-10-23T08:56:49.790Z,96986.75
2022-10-23T08:59:39.658Z,96987.34
2022-10-23T09:02:06.217Z,96982.03
2022-10-23T09:04:32.809Z,96985.28
2022-10-23T09:09:54.367Z,96988.44
2022-10-23T09:12:22.258Z,96982.44
2022-10-23T09:15:07.463Z,96988.69
2022-10-23T09:17:35.046Z,96987.69
2022-10-23T09:20:19.286Z,96985.44
2022-10-23T09:22:46.745Z,96980.88
2022-10-23T09:25:18.313Z,96979.63
2022-10-23T09:27:53.198Z,96982.91
2022-10-23T09:30:48.700Z,96977.72
2022-10-23T09:33:24.433Z,96973.88
2022-10-23T09:36:01.838Z,96970.13
2022-10-23T09:38:28.207Z,96962.66
2022-10-23T09:40:54.792Z,96959.19
2022-10-23T09:43:27.426Z,96944.78
2022-10-23T09:46:01.396Z,96953.34
2022-10-23T09:48:27.708Z,96955.47
2022-10-23T09:50:58.671Z,96938.41
2022-10-23T09:53:37.041Z,96945.06
2022-10-23T09:56:07.764Z,96950.69
2022-10-23T09:58:40.094Z,96953.34
2022-10-23T10:01:06.624Z,96956.00
2022-10-23T10:03:33.119Z,96953.50
2022-10-23T10:06:04.698Z,96952.31
2022-10-23T10:08:37.348Z,96952.53
2022-10-23T10:11:22.837Z,96956.56
2022-10-23T10:14:01.355Z,96959.66
2022-10-23T10:16:34.163Z,96965.97
2022-10-23T10:19:04.619Z,96954.94
2022-10-23T10:21:43.800Z,96949.09
2022-10-23T10:24:18.462Z,96944.47
2022-10-23T10:27:06.124Z,96940.91
2022-10-23T10:29:51.216Z,96934.13
2022-10-23T10:32:32.222Z,96929.38
2022-10-23T10:35:04.443Z,96929.19
2022-10-23T10:37:49.713Z,96926.63
2022-10-23T10:40:22.490Z,96927.19
2022-10-23T10:43:06.330Z,96931.63
2022-10-23T10:45:46.893Z,96927.63
2022-10-23T10:48:19.425Z,96919.50
2022-10-23T10:50:52.778Z,96913.53
2022-10-23T10:53:23.566Z,96899.41
2022-10-23T10:55:55.519Z,96905.84
2022-10-23T10:58:26.143Z,96899.47
2022-10-23T11:01:03.356Z,96892.41
2022-10-23T11:03:51.906Z,96894.44
2022-10-23T11:06:20.382Z,96889.44
2022-10-23T11:08:57.375Z,96888.78
2022-10-23T11:11:25.155Z,96866.84
2022-10-23T11:13:53.164Z,96874.53
2022-10-23T11:16:25.770Z,96871.00
2022-10-23T11:19:14.155Z,96865.69
2022-10-23T11:22:02.106Z,96864.81
2022-10-23T11:24:49.449Z,96862.41
2022-10-23T11:27:27.459Z,96848.44
2022-10-23T11:30:12.523Z,96841.03
2022-10-23T11:32:38.914Z,96829.56
2022-10-23T11:35:10.154Z,96829.13
2022-10-23T11:37:36.623Z,96821.75
2022-10-23T11:40:18.135Z,96815.91
2022-10-23T11:42:47.371Z,96822.47
2022-10-23T11:45:25.801Z,96804.66
2022-10-23T11:48:02.627Z,96806.78
2022-10-23T11:50:33.567Z,96801.69
2022-10-23T11:53:20.909Z,96808.75
2022-10-23T11:56:05.569Z,96789.66
2022-10-23T11:58:48.751Z,96787.56
2022-10-23T12:01:33.842Z,96799.34
2022-10-23T12:04:12.868Z,96801.56
2022-10-23T12:06:41.543Z,96796.81
2022-10-23T12:09:22.138Z,96794.88
2022-10-23T12:12:24.185Z,96795.88
2022-10-23T12:14:51.215Z,96807.28
2022-10-23T12:17:37.897Z,96812.69
2022-10-23T12:20:04.279Z,96799.38
2022-10-23T12:22:37.367Z,96791.97
2022-10-23T12:25:13.850Z,96785.81
2022-10-23T12:27:43.549Z,96785.53
2022-10-23T12:30:19.528Z,96786.75
2022-10-23T12:33:09.153Z,96779.56
2022-10-23T12:35:54.020Z,96756.84
2022-10-23T12:38:23.266Z,96735.91
2022-10-23T12:41:00.956Z,96733.69
2022-10-23T12:43:30.281Z,96743.84
2022-10-23T12:46:00.952Z,96743.91
2022-10-23T12:48:27.593Z,96739.97
2022-10-23T12:50:56.255Z,96738.38
2022-10-23T12:53:23.366Z,96751.13
2022-10-23T12:55:49.870Z,96744.13
2022-10-23T12:58:23.700Z,96742.53
2022-10-23T13:00:51.464Z,96745.69
2022-10-23T13:03:20.200Z,96732.00
2022-10-23T13:05:46.868Z,96738.53
2022-10-23T13:08:14.389Z,96741.50
2022-10-23T13:10:41.704Z,96746.13
2022-10-23T13:13:08.618Z,96748.66
2022-10-23T13:15:43.149Z,96740.75
2022-10-23T13:18:10.506Z,96725.69
2022-10-23T13:20:38.580Z,96728.09
2022-10-23T13:23:11.077Z,96711.47
2022-10-23T13:25:39.729Z,96714.34
2022-10-23T13:28:13.327Z,96706.69
2022-10-23T13:30:42.666Z,96704.06
2022-10-23T13:33:23.000Z,96693.78
2022-10-23T13:35:57.186Z,96690.91
2022-10-23T13:38:31.072Z,96684.78
2022-10-23T13:41:01.497Z,96699.25
2022-10-23T13:43:30.641Z,96706.81
2022-10-23T13:45:57.970Z,96700.53
2022-10-23T13:48:24.605Z,96690.22
2022-10-23T13:50:51.028Z,96700.91
2022-10-23T13:53:17.677Z,96698.34
2022-10-23T13:55:45.225Z,96693.69
2022-10-23T13:58:11.596Z,96678.56
2022-10-23T14:00:38.503Z,96685.50
2022-10-23T14:03:04.866Z,96692.06
2022-10-23T14:05:31.303Z,96688.84
2022-10-23T14:07:57.706Z,96678.72
2022-10-23T14:10:26.910Z,96679.81
2022-10-23T14:12:55.016Z,96671.81
2022-10-23T14:15:21.870Z,96682.13
2022-10-23T14:17:48.315Z,96680.03
2022-10-23T14:20:16.371Z,96677.59
2022-10-23T14:22:44.955Z,96672.41
2022-10-23T14:25:11.732Z,96680.75
2022-10-23T14:27:38.069Z,96680.41
2022-10-23T14:30:04.847Z,96674.28
2022-10-23T14:32:31.498Z,96681.19
2022-10-23T14:34:57.874Z,96683.72
2022-10-23T14:37:24.288Z,96675.84
2022-10-23T14:39:50.619Z,96682.50
2022-10-23T14:42:17.377Z,96676.84
2022-10-23T14:44:43.969Z,96686.81
2022-10-23T14:47:10.370Z,96682.66
2022-10-23T14:49:40.010Z,96671.66
2022-10-23T14:52:06.832Z,96662.66
2022-10-23T14:54:35.145Z,96677.13
2022-10-23T14:57:01.651Z,96663.22
2022-10-23T14:59:28.111Z,96656.28
2022-10-23T15:04:21.144Z,96653.22
2022-10-23T15:06:47.473Z,96651.59
2022-10-23T15:09:15.883Z,96650.59
2022-10-23T15:11:42.732Z,96648.59
2022-10-23T15:14:09.349Z,96652.53
2022-10-23T15:16:41.379Z,96649.81
2022-10-23T15:19:13.630Z,96649.03
2022-10-23T15:21:43.832Z,96642.16
2022-10-23T15:24:10.236Z,96639.59
2022-10-23T15:26:38.260Z,96638.84
2022-10-23T15:29:05.385Z,96631.88
2022-10-23T15:31:41.958Z,96627.34
2022-10-23T15:34:27.229Z,96628.25
2022-10-23T15:36:54.702Z,96628.44
2022-10-23T15:39:22.496Z,96629.84
2022-10-23T15:41:51.148Z,96634.44
2022-10-23T15:44:18.545Z,96632.06
2022-10-23T15:46:44.953Z,96635.38
2022-10-23T15:49:11.665Z,96632.06
2022-10-23T15:51:38.945Z,96629.03
2022-10-23T15:54:06.243Z,96639.28
2022-10-23T15:56:32.840Z,96625.47
2022-10-23T15:59:01.619Z,96643.03
2022-10-23T16:01:29.162Z,96630.00
2022-10-23T16:03:56.883Z,96629.47
2022-10-23T16:06:23.452Z,96627.66
2022-10-23T16:08:49.836Z,96617.97
2022-10-23T16:11:18.256Z,96637.38
2022-10-23T16:13:47.799Z,96636.03
2022-10-23T16:16:14.547Z,96632.56
2022-10-23T16:18:40.993Z,96632.41
2022-10-23T16:21:07.867Z,96627.09
2022-10-23T16:23:34.487Z,96628.59
2022-10-23T16:26:05.102Z,96626.94
2022-10-23T16:28:31.580Z,96630.47
2022-10-23T16:30:57.986Z,96630.28
2022-10-23T16:33:24.371Z,96624.88
2022-10-23T16:35:50.826Z,96620.63
2022-10-23T16:38:17.311Z,96621.59
2022-10-23T16:40:50.332Z,96621.63
2022-10-23T16:43:16.637Z,96617.16
2022-10-23T16:45:42.991Z,96628.13
2022-10-23T16:48:09.439Z,96625.50
2022-10-23T16:50:41.020Z,96628.38
2022-10-23T16:53:07.751Z,96626.16
2022-10-23T16:55:34.165Z,96630.59
2022-10-23T16:58:00.635Z,96623.31
2022-10-23T17:00:34.865Z,96617.63
2022-10-23T17:03:04.698Z,96629.00
2022-10-23T17:05:34.785Z,96630.41
2022-10-23T17:08:01.188Z,96634.50
2022-10-23T17:10:27.778Z,96642.25
2022-10-23T17:12:54.106Z,96642.88
2022-10-23T17:15:20.904Z,96641.22
2022-10-23T17:17:48.358Z,96630.06
2022-10-23T17:20:14.790Z,96627.81
2022-10-23T17:22:41.159Z,96627.66
2022-10-23T17:25:07.978Z,96617.06
2022-10-23T17:27:34.312Z,96617.91
2022-10-23T17:30:00.638Z,96625.44
2022-10-23T17:32:27.060Z,96628.47
2022-10-23T17:34:54.466Z,96631.50
2022-10-23T17:37:20.882Z,96631.13
2022-10-23T17:39:47.200Z,96626.66
2022-10-23T17:42:13.632Z,96630.28
2022-10-23T17:44:39.964Z,96622.78
2022-10-23T17:47:06.271Z,96617.50
2022-10-23T17:49:32.668Z,96612.63
2022-10-23T17:51:59.099Z,96606.28
2022-10-23T17:54:26.692Z,96598.97
2022-10-23T17:56:53.034Z,96594.28
2022-10-23T17:59:19.745Z,96598.78
2022-10-23T18:01:48.075Z,96606.50
2022-10-23T18:04:15.607Z,96605.09
2022-10-23T18:06:47.368Z,96600.78
2022-10-23T18:09:13.800Z,96604.25
2022-10-23T18:11:45.253Z,96605.47
2022-10-23T18:14:13.339Z,96603.44
2022-10-23T18:16:40.458Z,96608.13
2022-10-23T18:19:07.021Z,96622.91
2022-10-23T18:21:33.403Z,96612.16
2022-10-23T18:24:00.153Z,96624.13
2022-10-23T18:26:28.103Z,96613.38
2022-10-23T18:28:58.647Z,96602.22
2022-10-23T18:31:27.119Z,96591.03
2022-10-23T18:33:57.566Z,96602.41
2022-10-23T18:36:26.690Z,96602.16
2022-10-23T18:38:53.161Z,96605.44
2022-10-23T18:41:19.868Z,96613.13
2022-10-23T18:43:46.310Z,96600.75
2022-10-23T18:46:13.061Z,96590.00
2022-10-23T18:48:39.669Z,96585.13
2022-10-23T18:51:15.601Z,96597.25
2022-10-23T18:53:42.497Z,96598.91
2022-10-23T18:56:08.890Z,96589.53
2022-10-23T18:58:35.244Z,96602.16
2022-10-23T19:01:02.528Z,96595.44
2022-10-23T19:03:29.122Z,96582.44
2022-10-23T19:05:56.608Z,96578.56
2022-10-23T19:08:22.927Z,96578.56
2022-10-23T19:10:50.197Z,96563.97
2022-10-23T19:13:17.100Z,96557.00
2022-10-23T19:15:43.653Z,96548.31
2022-10-23T19:18:10.491Z,96523.53
2022-10-23T19:20:41.405Z,96535.31
2022-10-23T19:23:07.835Z,96537.56
2022-10-23T19:25:34.931Z,96532.47
2022-10-23T19:28:02.021Z,96523.75
2022-10-23T19:30:28.553Z,96523.34
2022-10-23T19:32:54.924Z,96542.00
2022-10-23T19:35:21.563Z,96544.66
2022-10-23T19:37:47.937Z,96540.19
2022-10-23T19:40:14.628Z,96542.44
2022-10-23T19:42:41.882Z,96535.28
2022-10-23T19:45:12.347Z,96540.38
2022-10-23T19:47:39.150Z,96549.50
2022-10-23T19:50:06.712Z,96555.81
2022-10-23T19:52:34.489Z,96557.63
2022-10-23T19:55:01.357Z,96562.91
2022-10-23T19:57:30.375Z,96554.59
2022-10-23T19:59:56.768Z,96558.66
2022-10-23T20:02:23.253Z,96565.16
2022-10-23T20:04:50.932Z,96567.59
2022-10-23T20:07:17.375Z,96600.31
2022-10-23T20:09:43.778Z,96597.44
2022-10-23T20:12:11.173Z,96590.94
2022-10-23T20:14:37.499Z,96622.00
2022-10-23T20:17:05.084Z,96584.13
2022-10-23T20:19:31.445Z,96615.81
2022-10-23T20:21:57.840Z,96614.59
2022-10-23T20:24:24.146Z,96621.34
2022-10-23T20:26:52.320Z,96628.66
2022-10-23T20:29:18.949Z,96608.94
2022-10-23T20:31:45.330Z,96632.72
2022-10-23T20:34:12.291Z,96628.03
2022-10-23T20:36:45.423Z,96630.69
2022-10-23T20:39:15.587Z,96642.88
2022-10-23T20:41:42.164Z,96629.84
2022-10-23T20:44:10.731Z,96637.41
2022-10-23T20:46:37.137Z,96635.56
2022-10-23T20:49:03.811Z,96623.56
2022-10-23T20:51:30.230Z,96629.06
2022-10-23T20:53:56.540Z,96647.34
2022-10-23T20:56:24.257Z,96639.44
2022-10-23T20:58:50.713Z,96635.97
2022-10-23T21:01:17.847Z,96662.38
2022-10-23T21:03:49.213Z,96654.25
2022-10-23T21:06:16.267Z,96667.09
2022-10-23T21:08:42.574Z,96674.00
2022-10-23T21:11:12.791Z,96692.91
2022-10-23T21:13:40.080Z,96708.13
2022-10-23T21:16:13.869Z,96694.50
2022-10-23T21:18:45.970Z,96700.97
2022-10-23T21:21:13.966Z,96698.16
2022-10-23T21:23:40.981Z,96691.47
2022-10-23T21:26:07.970Z,96680.69
2022-10-23T21:28:34.821Z,96683.94
2022-10-23T21:31:09.783Z,96682.72
2022-10-23T21:33:36.820Z,96679.47
2022-10-23T21:36:18.725Z,96681.72
2022-10-23T21:38:45.825Z,96678.44
2022-10-23T21:41:13.812Z,96689.66
2022-10-23T21:43:40.128Z,96687.41
2022-10-23T21:46:09.406Z,96688.00
2022-10-23T21:48:35.754Z,96681.91
2022-10-23T21:51:02.214Z,96682.50
2022-10-23T21:53:28.946Z,96664.66
2022-10-23T21:55:56.073Z,96667.47
2022-10-23T21:58:22.446Z,96671.94
2022-10-23T22:00:48.861Z,96681.72
2022-10-23T22:03:15.175Z,96689.84
2022-10-23T22:05:41.590Z,96694.47
2022-10-23T22:08:07.920Z,96695.72
2022-10-23T22:10:35.340Z,96700.19
2022-10-23T22:13:01.664Z,96704.44
2022-10-23T22:15:28.120Z,96698.16
2022-10-23T22:17:54.506Z,96683.09
2022-10-23T22:20:20.850Z,96683.09
2022-10-23T22:22:47.166Z,96680.66
2022-10-23T22:25:13.531Z,96678.41
2022-10-23T22:27:41.036Z,96692.84
2022-10-23T22:30:07.557Z,96703.81
2022-10-23T22:32:34.856Z,96705.78
2022-10-23T22:35:01.192Z,96705.41
2022-10-23T22:37:27.506Z,96712.94
2022-10-23T22:39:53.847Z,96705.22
2022-10-23T22:42:20.342Z,96711.53
2022-10-23T22:44:46.726Z,96711.34
2022-10-23T22:47:13.147Z,96718.03
2022-10-23T22:49:39.730Z,96728.03
2022-10-23T22:52:06.124Z,96736.53
2022-10-23T22:54:32.498Z,96735.97
2022-10-23T22:56:58.962Z,96735.97
2022-10-23T22:59:25.277Z,96742.47
2022-10-23T23:01:52.794Z,96745.69
2022-10-23T23:04:37.232Z,96752.22
2022-10-23T23:07:04.524Z,96756.69
2022-10-23T23:09:31.882Z,96761.16
2022-10-23T23:11:58.470Z,96772.34
2022-10-23T23:14:24.843Z,96753.06
2022-10-23T23:16:51.846Z,96754.47
2022-10-23T23:19:18.320Z,96768.91
2022-10-23T23:21:44.696Z,96769.34
2022-10-23T23:24:12.127Z,96767.03
2022-10-23T23:26:38.687Z,96759.13
2022-10-23T23:29:05.033Z,96751.84
2022-10-23T23:31:31.479Z,96761.56
2022-10-23T23:33:57.817Z,96755.44
2022-10-23T23:36:25.310Z,96753.47
2022-10-23T23:38:52.306Z,96747.16
2022-10-23T23:41:20.061Z,96760.53
2022-10-23T23:43:46.690Z,96761.88
2022-10-23T23:46:13.388Z,96754.75
2022-10-23T23:48:40.328Z,96742.38
2022-10-23T23:51:06.651Z,96758.28
2022-10-23T23:53:32.972Z,96755.66
2022-10-23T23:55:59.565Z,96756.28
2022-10-23T23:58:25.903Z,96751.84
